Airports

 

 

Airport Name Latest METAR Visual Conditions
Atlantic City Int. (ACY) KACY 241554Z AUTO 03013KT 10SM CLR 25/11 A3016 RMK AO2 SLP211 T02500111 VFR
Baltimore International Airport (BWI) KBWI 241554Z 07006KT 10SM SCT038 SCT080 SCT180 SCT250 24/13 A3018 RMK AO2 SLP217 T02440133 VFR
Washington National Airport (DCA) KDCA 241652Z 05008KT 10SM BKN060 BKN250 25/12 A3018 RMK AO2 SLP218 T02500117 VFR
Dulles International Airport (IAD) KIAD 241652Z 03010G17KT 10SM BKN065 BKN250 24/11 A3018 RMK AO2 SLP219 T02440111 $ VFR
Norfolk International Airport (ORF) KORF 241651Z 03011KT 10SM -RA BKN060 OVC100 23/18 A3012 RMK AO2 RAB42 SLP198 P0000 T02330178 VFR
Raleigh International Airport (RDU) KRDU 241651Z 05011G15KT 10SM BKN017 OVC034 22/18 A3013 RMK AO2 SLP199 T02170183 MVFR
Richmond International Airport (RIC) KRIC 241554Z 03008KT 10SM FEW020 BKN065 22/17 A3017 RMK AO2 SLP218 T02220172 VFR
Roanoke Regional Airport (ROA) KROA 241554Z 11007KT 10SM FEW015 SCT023 OVC043 19/13 A3024 RMK AO2 SLP231 T01940133 VFR